Ana Sayfa
METAR-TAF:

METAR-TAF

Havaalanları :

East London, Güney Afrika

Enlem: 33-02S, Boylam: 027-50E, yükseklik: 125 m

Güncel hava durumu gözlemi

Rapor saat 14:00 UTC de 1 saat ve 19 dakika önce yapıldı.
Rüzgar doğu/kuzeydoğudan 10 kt
Sıcaklık 21°C
Nem 53%
Basınç 1013 hPa
Görüş mesafesi 10 km veya daha fazla
1500 m altında bulut yok ve kümülonimbus yok

METAR: FAEL 081400Z 07010KT CAVOK 21/11 Q1013

Saat: 17:19 (15:19 UTC)

Tahmin

Rapor saat 09:00 UTC de 6 saat ve 19 dakika önce yapıldı.
Ayın 08'si saat 10 UTC'den ayın 08'si saat 19 UTC'ye kadar geçerli Tahmin
Rüzgar doğu/kuzeydoğudan 13 kt
Görüş mesafesi 10 km veya daha fazla
1500 m altında bulut yok ve kümülonimbus yok
Dönüşüyor
ayın 08'si saat 16 UTC'den ayın 08'si saat 18 UTC'ye kadar
Rüzgar kuzeydan 5 kt

TAF: FAEL 080900Z 0810/0819 07013KT CAVOK TX22/0810Z TN19/0819Z BECMG 0816/0818 01005KT

4.000'den fazla havaalanı için hava durumu gözlemleri ve tahminleri (METAR ve TAF raporları).

Kullanılabilir istasyonlar harita üzerinde sarı ve kırmızı noktalarla gösterilir.

İstasyonun adını görmek için fareyi noktanın üzerinde gezdirin.

Sonrasında hava gözlem ve tahminlerini görmek için tıklayın.

Haritayı değiştirmek için: yaklaştırmak için siyah artı işaretli yeşil düğmeye ve uzaklaştırmak için de eksi işaretli düğmeye hızla tıklayın; bitişik haritalar için yeşil okları kullanın.


METAR-TAF: